Aviation Digital Data Service (ADDS)

Output produced by METARs form (1836 UTC 19 August 2019)
found at http://www.aviationweather.gov/metar/data/
 
Forecast for: LFOK (CHALONS/VATRY FA, FR)
Text: TAF LFOK 191700Z 1918/2018 26010KT CAVOK
Forecast period: 1800 to 1900 UTC 19 August 2019
Forecast type: FROM: standard forecast or significant change
Winds: from the W (260 degrees) at 12 MPH (10 knots; 5.1 m/s)
Visibility: 6 or more miles 10+ km)
Ceiling: unknown
Clouds: missing
Weather: NSW  (no significant weather)
Text: BECMG 1919/1921 VRB02KT
Forecast period: 1900 UTC 19 August 2019 to 1000 UTC 20 August 2019
Forecast type: BECOMING: Conditions expected to become as follows by 2100 UTC 19 August 2019
Winds: variable direction winds at 2 MPH (2 knots; 1.0 m/s)
Visibility: 6 or more miles 10+ km)
Ceiling: unknown
Clouds: missing
Weather: NSW  (no significant weather)
Text: PROB30 2002/2006 4000 BR
Forecast period: 0200 to 0600 UTC 20 August 2019
Forecast type: PROBABLE: 30 percent likelihood of the following during this time
Visibility: 2.49 miles (4.01 km)
Ceiling: unknown
Clouds: missing
Weather: BR  (mist)
Text: BECMG 2010/2012 30010KT
Forecast period: 1000 to 1800 UTC 20 August 2019
Forecast type: BECOMING: Conditions expected to become as follows by 1200 UTC 20 August 2019
Winds: from the WNW (300 degrees) at 12 MPH (10 knots; 5.1 m/s)
Visibility: 6 or more miles 10+ km)
Ceiling: unknown
Clouds: missing
Weather: NSW  (no significant weather)